createdAt,value
2023-03-23T15:58:19.090Z,16.14
2023-03-23T16:00:47.003Z,16.09
2023-03-23T16:03:27.709Z,16.04
2023-03-23T16:05:57.548Z,16.00
2023-03-23T16:08:24.339Z,15.87
2023-03-23T16:10:51.233Z,15.83
2023-03-23T16:13:18.478Z,15.81
2023-03-23T16:15:47.702Z,15.83
2023-03-23T16:18:19.090Z,15.82
2023-03-23T16:20:47.571Z,15.70
2023-03-23T16:23:14.458Z,15.80
2023-03-23T16:25:41.474Z,15.82
2023-03-23T16:28:12.891Z,15.88
2023-03-23T16:30:40.584Z,15.87
2023-03-23T16:33:07.435Z,15.78
2023-03-23T16:35:34.614Z,15.74
2023-03-23T16:38:08.061Z,15.71
2023-03-23T16:40:39.230Z,15.80
2023-03-23T16:43:09.128Z,15.83
2023-03-23T16:45:37.747Z,15.61
2023-03-23T16:48:05.565Z,15.47
2023-03-23T16:50:32.970Z,15.37
2023-03-23T16:53:00.030Z,15.26
2023-03-23T16:55:28.032Z,15.16
2023-03-23T16:58:05.401Z,15.27
2023-03-23T17:00:40.786Z,15.27
2023-03-23T17:03:08.211Z,15.22
2023-03-23T17:05:37.196Z,15.16
2023-03-23T17:08:05.109Z,15.18
2023-03-23T17:10:32.331Z,15.15
2023-03-23T17:12:59.355Z,15.13
2023-03-23T17:15:26.796Z,14.94
2023-03-23T17:17:55.167Z,14.94
2023-03-23T17:20:23.223Z,14.93
2023-03-23T17:22:50.136Z,15.00
2023-03-23T17:25:16.871Z,14.97
2023-03-23T17:27:43.760Z,14.83
2023-03-23T17:30:11.559Z,14.78
2023-03-23T17:32:38.548Z,14.78
2023-03-23T17:35:06.620Z,14.82
2023-03-23T17:37:33.562Z,14.73
2023-03-23T17:40:00.468Z,14.77
2023-03-23T17:42:27.625Z,14.69
2023-03-23T17:44:54.381Z,14.69
2023-03-23T17:47:21.345Z,14.64
2023-03-23T17:49:48.176Z,14.66
2023-03-23T17:52:15.344Z,14.66
2023-03-23T17:54:42.342Z,14.56
2023-03-23T17:57:09.378Z,14.48
2023-03-23T17:59:36.266Z,14.46
2023-03-23T18:02:03.135Z,14.50
2023-03-23T18:04:30.671Z,14.44
2023-03-23T18:06:58.402Z,14.43
2023-03-23T18:09:25.840Z,14.43
2023-03-23T18:11:53.237Z,14.47
2023-03-23T18:14:20.883Z,14.46
2023-03-23T18:16:48.326Z,14.38
2023-03-23T18:19:15.689Z,14.35
2023-03-23T18:21:45.334Z,14.32
2023-03-23T18:24:13.094Z,14.29
2023-03-23T18:26:40.734Z,14.25
2023-03-23T18:29:07.581Z,14.13
2023-03-23T18:31:39.998Z,14.25
2023-03-23T18:34:08.072Z,14.29
2023-03-23T18:36:35.678Z,14.36
2023-03-23T18:39:03.970Z,14.41
2023-03-23T18:41:30.825Z,14.39
2023-03-23T18:43:58.012Z,14.45
2023-03-23T18:46:25.199Z,14.52
2023-03-23T18:48:52.147Z,14.46
2023-03-23T18:51:19.340Z,14.43
2023-03-23T18:53:46.228Z,14.40
2023-03-23T18:56:16.151Z,14.43
2023-03-23T18:58:44.263Z,14.35
2023-03-23T19:01:14.677Z,14.32
2023-03-23T19:03:42.165Z,14.28
2023-03-23T19:06:35.719Z,14.17
2023-03-23T19:09:02.644Z,14.15
2023-03-23T19:11:29.649Z,14.21
2023-03-23T19:14:02.598Z,14.24
2023-03-23T19:16:32.591Z,14.21
2023-03-23T19:19:01.977Z,14.17
2023-03-23T19:21:32.063Z,14.11
2023-03-23T19:24:00.649Z,14.13
2023-03-23T19:26:39.285Z,14.12
2023-03-23T19:31:38.941Z,14.12
2023-03-23T19:34:06.216Z,14.12
2023-03-23T19:36:33.508Z,14.12
2023-03-23T19:39:02.625Z,14.14
2023-03-23T19:41:30.667Z,14.12
2023-03-23T19:43:59.919Z,14.04
2023-03-23T19:46:30.269Z,14.00
2023-03-23T19:48:58.886Z,14.00
2023-03-23T19:51:26.834Z,13.99
2023-03-23T19:53:58.474Z,14.06
2023-03-23T19:56:26.244Z,14.07
2023-03-23T19:58:53.210Z,14.02
2023-03-23T20:01:20.387Z,13.95
2023-03-23T20:03:48.554Z,13.94
2023-03-23T20:06:15.762Z,13.82
2023-03-23T20:08:45.746Z,13.83
2023-03-23T20:11:17.171Z,13.77
2023-03-23T20:13:45.616Z,13.76
2023-03-23T20:16:12.473Z,13.79
2023-03-23T20:18:40.379Z,13.78
2023-03-23T20:21:10.528Z,13.76
2023-03-23T20:23:38.838Z,13.68
2023-03-23T20:26:09.413Z,13.61
2023-03-23T20:28:36.608Z,13.50
2023-03-23T20:31:18.988Z,13.38
2023-03-23T20:33:59.658Z,13.30
2023-03-23T20:36:35.186Z,13.20
2023-03-23T20:39:11.613Z,13.16
2023-03-23T20:41:40.509Z,13.08
2023-03-23T20:44:14.247Z,12.98
2023-03-23T20:46:51.937Z,12.84
2023-03-23T20:49:21.001Z,12.77
2023-03-23T20:51:48.583Z,12.76
2023-03-23T20:54:18.902Z,12.81
2023-03-23T20:56:47.438Z,12.83
2023-03-23T20:59:15.579Z,12.96
2023-03-23T21:01:42.877Z,13.04
2023-03-23T21:04:15.484Z,13.06
2023-03-23T21:06:44.086Z,13.02
2023-03-23T21:09:12.192Z,13.02
2023-03-23T21:11:39.264Z,13.02
2023-03-23T21:14:06.960Z,13.01
2023-03-23T21:16:34.469Z,13.00
2023-03-23T21:19:03.516Z,13.02
2023-03-23T21:21:31.181Z,13.02
2023-03-23T21:23:58.216Z,13.06
2023-03-23T21:26:28.965Z,13.07
2023-03-23T21:29:00.072Z,12.93
2023-03-23T21:31:31.807Z,12.90
2023-03-23T21:34:00.217Z,12.88
2023-03-23T21:36:27.926Z,12.77
2023-03-23T21:38:56.132Z,12.75
2023-03-23T21:41:23.223Z,12.74
2023-03-23T21:43:51.568Z,12.73
2023-03-23T21:46:18.966Z,12.68
2023-03-23T21:48:51.761Z,12.43
2023-03-23T21:51:28.178Z,12.45
2023-03-23T21:53:58.667Z,12.42
2023-03-23T21:56:28.591Z,12.39
2023-03-23T21:58:56.947Z,12.42
2023-03-23T22:01:25.205Z,12.40
2023-03-23T22:03:52.162Z,12.43
2023-03-23T22:06:23.543Z,12.48
2023-03-23T22:08:51.514Z,12.49
2023-03-23T22:11:21.586Z,12.37
2023-03-23T22:13:51.480Z,12.33
2023-03-23T22:16:19.917Z,12.40
2023-03-23T22:18:48.165Z,12.45
2023-03-23T22:21:16.819Z,12.47
2023-03-23T22:23:45.441Z,12.43
2023-03-23T22:26:14.050Z,12.44
2023-03-23T22:28:41.820Z,12.45
2023-03-23T22:31:17.123Z,12.42
2023-03-23T22:33:45.675Z,12.41
2023-03-23T22:36:12.944Z,12.47
2023-03-23T22:38:43.884Z,12.41
2023-03-23T22:41:17.897Z,12.30
2023-03-23T22:43:45.804Z,12.43
2023-03-23T22:46:12.873Z,12.47
2023-03-23T22:48:40.776Z,12.40
2023-03-23T22:51:09.157Z,12.27
2023-03-23T22:53:36.323Z,12.29
2023-03-23T22:56:04.092Z,12.31
2023-03-23T22:58:31.261Z,12.34
2023-03-23T23:01:05.524Z,12.39
2023-03-23T23:03:34.034Z,12.42
2023-03-23T23:06:01.565Z,12.48
2023-03-23T23:08:30.127Z,12.49
2023-03-23T23:10:58.894Z,12.52
2023-03-23T23:13:26.892Z,12.53
2023-03-23T23:15:58.331Z,12.51
2023-03-23T23:18:30.050Z,12.48
2023-03-23T23:21:00.117Z,12.45
2023-03-23T23:23:28.184Z,12.50
2023-03-23T23:25:55.495Z,12.45
2023-03-23T23:28:22.974Z,12.50
2023-03-23T23:30:51.042Z,12.52
2023-03-23T23:33:19.110Z,12.50
2023-03-23T23:35:46.416Z,12.45
2023-03-23T23:38:14.028Z,12.39
2023-03-23T23:40:43.239Z,12.38
2023-03-23T23:43:12.299Z,12.32
2023-03-23T23:45:40.469Z,12.37
2023-03-23T23:48:07.435Z,12.38
2023-03-23T23:50:34.345Z,12.40
2023-03-23T23:53:01.481Z,12.44
2023-03-23T23:55:28.796Z,12.46
2023-03-23T23:57:56.154Z,12.52
